Time;durP1;ratioP1;P1;durP2;ratioP2;P2;SDS_P1;SDS_P2;PMS_P1;PMS_P2;Temp;Humidity;BMP_temperature;BMP_pressure;BME280_temperature;BME280_humidity;BME280_pressure;Samples;Min_cycle;Max_cycle;Signal;HPM_P1;HPM_P2
2021/06/19 00:01:40;;;;;;;9.05;4.65;;;24.50;99.90;;;;;;5074305;28;20044;-65
2021/06/19 00:04:07;;;;;;;13.48;4.43;;;24.40;99.90;;;;;;5074213;28;20028;-65
2021/06/19 00:06:32;;;;;;;14.40;5.15;;;24.40;99.90;;;;;;5074326;28;20034;-64
2021/06/19 00:08:58;;;;;;;9.57;4.30;;;24.20;99.90;;;;;;5074123;28;20131;-64
2021/06/19 00:11:24;;;;;;;10.35;5.30;;;24.20;99.90;;;;;;5072798;28;20097;-64
2021/06/19 00:13:49;;;;;;;14.18;4.75;;;24.20;99.90;;;;;;5073818;28;20107;-64
2021/06/19 00:16:15;;;;;;;9.85;4.40;;;24.20;99.90;;;;;;5073906;28;20411;-65
2021/06/19 00:18:41;;;;;;;17.60;5.50;;;24.10;99.90;;;;;;5072759;28;20051;-64
2021/06/19 00:21:07;;;;;;;17.13;4.90;;;24.10;99.90;;;;;;5073812;28;20111;-64
2021/06/19 00:23:33;;;;;;;10.15;4.60;;;24.10;99.90;;;;;;5073099;28;20102;-64
2021/06/19 00:25:59;;;;;;;12.57;5.63;;;24.10;99.90;;;;;;5072493;28;20040;-64
2021/06/19 00:28:24;;;;;;;9.98;4.68;;;24.10;99.90;;;;;;5072410;28;20032;-64
2021/06/19 00:30:51;;;;;;;12.35;4.53;;;24.00;99.90;;;;;;5072139;28;20072;-64
2021/06/19 00:33:17;;;;;;;11.15;5.07;;;24.00;99.90;;;;;;5073271;28;20025;-64
2021/06/19 00:35:43;;;;;;;13.20;5.13;;;24.10;99.90;;;;;;5073155;28;20036;-65
2021/06/19 00:38:08;;;;;;;10.95;4.97;;;23.90;99.90;;;;;;5073507;28;20035;-64
2021/06/19 00:40:34;;;;;;;13.07;5.18;;;24.00;99.90;;;;;;5072258;28;20035;-64
2021/06/19 00:43:04;;;;;;;10.82;4.68;;;23.90;99.90;;;;;;5073106;28;20162;-64
2021/06/19 00:45:34;;;;;;;13.32;4.90;;;23.90;99.90;;;;;;5072549;28;20055;-64
2021/06/19 00:48:00;;;;;;;11.10;5.63;;;24.00;99.90;;;;;;5073058;28;20235;-64
2021/06/19 00:50:27;;;;;;;12.32;4.93;;;23.90;99.90;;;;;;5073301;28;20275;-65
2021/06/19 00:52:53;;;;;;;9.90;5.18;;;23.80;99.90;;;;;;5072816;28;20039;-64
2021/06/19 00:55:20;;;;;;;14.35;6.15;;;23.70;99.90;;;;;;5073382;28;20044;-64
2021/06/19 00:57:47;;;;;;;9.35;4.93;;;23.60;99.90;;;;;;5071754;28;20110;-65
2021/06/19 01:00:14;;;;;;;12.00;5.38;;;23.50;99.90;;;;;;5073102;28;20040;-64
2021/06/19 01:02:40;;;;;;;11.63;5.05;;;23.40;99.90;;;;;;5072984;28;20032;-64
2021/06/19 01:05:09;;;;;;;15.27;6.03;;;23.40;99.90;;;;;;5072865;28;20028;-63
2021/06/19 01:07:35;;;;;;;15.93;5.85;;;23.30;99.90;;;;;;5072774;28;20119;-64
2021/06/19 01:10:01;;;;;;;14.48;6.47;;;23.20;99.90;;;;;;5071592;28;20029;-64
2021/06/19 01:12:27;;;;;;;13.68;5.60;;;23.10;99.90;;;;;;5073091;28;20036;-63
2021/06/19 01:14:54;;;;;;;16.30;6.05;;;23.10;99.90;;;;;;5071701;28;20521;-64
2021/06/19 01:17:23;;;;;;;13.60;6.13;;;23.10;99.90;;;;;;5071460;28;20090;-71
2021/06/19 01:20:10;;;;;;;13.82;5.70;;;23.30;99.90;;;;;;5071485;28;20580;-64
2021/06/19 01:22:39;;;;;;;12.98;5.78;;;23.30;99.90;;;;;;5072856;28;20129;-64
2021/06/19 01:25:08;;;;;;;9.85;5.40;;;23.20;99.90;;;;;;5072555;28;20041;-64
2021/06/19 01:27:34;;;;;;;12.15;5.53;;;23.20;99.90;;;;;;5071602;28;20040;-64
2021/06/19 01:30:03;;;;;;;14.45;6.32;;;23.20;99.90;;;;;;5072487;28;20037;-64
2021/06/19 01:32:38;;;;;;;11.98;5.60;;;23.10;99.90;;;;;;5072671;28;20032;-64
2021/06/19 01:35:05;;;;;;;14.05;6.30;;;23.10;99.90;;;;;;5072550;28;20060;-64
2021/06/19 01:37:31;;;;;;;15.00;6.22;;;23.10;99.90;;;;;;5071082;28;20423;-64
2021/06/19 01:40:14;;;;;;;16.40;5.85;;;23.20;99.90;;;;;;5072584;28;20035;-64
2021/06/19 01:42:46;;;;;;;10.90;5.38;;;23.20;99.90;;;;;;5070968;28;20032;-64
2021/06/19 01:45:26;;;;;;;17.20;5.45;;;23.10;99.90;;;;;;5072621;28;20036;-64
2021/06/19 01:47:52;;;;;;;12.30;5.55;;;23.00;99.90;;;;;;5072233;28;20118;-65
2021/06/19 01:50:22;;;;;;;11.98;6.15;;;23.00;99.90;;;;;;5072536;28;20571;-65
2021/06/19 01:52:50;;;;;;;17.27;6.10;;;23.20;99.90;;;;;;5072309;28;20032;-65
2021/06/19 01:55:16;;;;;;;12.45;5.53;;;23.20;99.90;;;;;;5071460;28;20032;-65
2021/06/19 01:57:43;;;;;;;18.70;6.65;;;23.30;99.90;;;;;;5072084;28;20097;-65
2021/06/19 02:00:18;;;;;;;14.02;6.05;;;23.20;99.90;;;;;;5054249;28;20055;-65
2021/06/19 02:02:44;;;;;;;16.30;6.28;;;23.20;99.90;;;;;;5071068;28;20037;-65
2021/06/19 02:05:13;;;;;;;11.88;6.15;;;23.20;99.90;;;;;;5087929;28;20094;-65
2021/06/19 02:08:01;;;;;;;13.10;6.07;;;23.20;99.90;;;;;;5072310;28;20086;-65
2021/06/19 02:10:35;;;;;;;11.15;6.38;;;23.30;99.90;;;;;;5072068;28;20028;-65
2021/06/19 02:13:03;;;;;;;14.48;7.00;;;23.20;99.90;;;;;;5072939;28;20362;-65
2021/06/19 02:15:29;;;;;;;14.75;6.38;;;23.10;99.90;;;;;;5076395;28;20078;-65
2021/06/19 02:17:56;;;;;;;14.70;6.47;;;23.00;99.90;;;;;;5075965;28;20063;-65
2021/06/19 02:20:24;;;;;;;15.23;6.88;;;23.00;99.90;;;;;;5058134;28;20380;-65
2021/06/19 02:22:50;;;;;;;17.52;6.53;;;23.00;99.90;;;;;;5076024;28;20447;-64
2021/06/19 02:25:19;;;;;;;14.73;6.50;;;23.00;99.90;;;;;;5075882;28;20025;-64
2021/06/19 02:28:08;;;;;;;11.57;6.22;;;23.10;99.90;;;;;;5074799;28;20099;-64
2021/06/19 02:30:46;;;;;;;12.18;6.20;;;23.10;99.90;;;;;;5074730;28;20048;-64
2021/06/19 02:33:14;;;;;;;16.75;6.75;;;23.10;99.90;;;;;;5074819;28;20067;-64
2021/06/19 02:35:44;;;;;;;12.80;5.82;;;23.10;99.90;;;;;;5076142;28;20040;-64
2021/06/19 02:38:11;;;;;;;;;;;23.10;99.90;;;;;;5076346;28;20028;-64
2021/06/19 02:40:41;;;;;;;10.93;5.90;;;23.20;99.90;;;;;;5075693;28;20362;-64
2021/06/19 02:43:08;;;;;;;14.07;6.40;;;23.20;99.90;;;;;;5076186;28;20063;-64
2021/06/19 02:45:35;;;;;;;13.85;6.82;;;23.20;99.90;;;;;;5074289;28;20283;-64
2021/06/19 02:48:01;;;;;;;12.32;6.38;;;23.10;99.90;;;;;;5075734;28;20032;-64
2021/06/19 02:50:33;;;;;;;13.00;6.10;;;23.30;99.90;;;;;;5075841;28;20453;-64
2021/06/19 02:53:00;;;;;;;15.68;6.45;;;23.30;99.90;;;;;;5075148;28;20046;-64
2021/06/19 02:55:32;;;;;;;9.80;5.90;;;23.30;99.90;;;;;;5074567;28;20029;-64
2021/06/19 02:57:59;;;;;;;11.88;6.13;;;23.20;99.90;;;;;;5074274;28;20035;-64
2021/06/19 03:00:25;;;;;;;18.75;5.95;;;23.30;99.90;;;;;;5075692;28;20033;-64
2021/06/19 03:02:51;;;;;;;11.60;5.88;;;23.30;99.90;;;;;;5074996;28;20032;-64
2021/06/19 03:05:20;;;;;;;11.35;5.97;;;23.30;99.90;;;;;;5075516;28;20064;-65
2021/06/19 03:07:47;;;;;;;12.88;5.82;;;23.40;99.90;;;;;;5075207;28;20032;-66
2021/06/19 03:10:18;;;;;;;14.77;6.03;;;23.40;99.90;;;;;;5073772;28;20082;-65
2021/06/19 03:12:44;;;;;;;14.75;6.13;;;23.20;99.90;;;;;;5075383;28;20040;-65
2021/06/19 03:15:12;;;;;;;14.35;7.18;;;23.20;99.90;;;;;;5073875;28;20033;-64
2021/06/19 03:17:38;;;;;;;9.88;5.40;;;23.20;99.90;;;;;;5075064;28;20029;-65
2021/06/19 03:20:07;;;;;;;15.07;6.03;;;23.30;99.90;;;;;;5073585;28;20418;-64
2021/06/19 03:22:52;;;;;;;16.63;6.20;;;23.30;99.90;;;;;;5073786;28;20384;-65
2021/06/19 03:25:36;;;;;;;13.45;6.50;;;23.20;99.90;;;;;;5074796;28;20028;-64
2021/06/19 03:28:05;;;;;;;14.43;6.15;;;23.20;99.90;;;;;;5073565;28;20370;-64
2021/06/19 03:30:36;;;;;;;15.32;6.10;;;23.20;99.90;;;;;;5074712;28;20122;-64
2021/06/19 03:33:03;;;;;;;23.13;6.90;;;23.30;99.90;;;;;;5073456;28;20052;-64
2021/06/19 03:35:29;;;;;;;13.05;7.28;;;23.30;99.90;;;;;;5073642;28;20424;-64
2021/06/19 03:37:56;;;;;;;15.48;6.00;;;23.30;99.90;;;;;;5074596;28;20033;-64
2021/06/19 03:40:24;;;;;;;15.32;6.93;;;23.20;99.90;;;;;;5074472;28;20416;-63
2021/06/19 03:42:50;;;;;;;13.52;6.70;;;23.30;99.90;;;;;;5073407;28;20443;-64
2021/06/19 03:45:18;;;;;;;11.98;6.03;;;23.10;99.90;;;;;;5074336;28;20036;-64
2021/06/19 03:47:45;;;;;;;15.25;5.97;;;23.20;99.90;;;;;;5074729;28;20025;-64
2021/06/19 03:50:15;;;;;;;16.08;5.80;;;23.20;99.90;;;;;;5073322;28;20029;-65
2021/06/19 03:52:40;;;;;;;15.20;6.30;;;23.30;99.90;;;;;;5074345;28;20028;-64
2021/06/19 03:55:08;;;;;;;13.23;5.85;;;23.30;99.90;;;;;;5074370;28;20035;-63
2021/06/19 03:57:36;;;;;;;15.90;6.05;;;23.30;99.90;;;;;;5074238;28;20050;-64
2021/06/19 04:00:05;;;;;;;17.70;6.45;;;23.10;99.90;;;;;;5074319;28;20119;-64
2021/06/19 04:02:30;;;;;;;15.63;6.10;;;23.00;99.90;;;;;;5073212;28;20032;-64
2021/06/19 04:04:56;;;;;;;13.60;6.85;;;22.90;99.90;;;;;;5074248;28;20029;-64
2021/06/19 04:07:22;;;;;;;11.70;6.47;;;22.80;99.90;;;;;;5074035;28;20036;-64
2021/06/19 04:09:49;;;;;;;12.20;6.70;;;22.90;99.90;;;;;;5074404;28;20064;-63
2021/06/19 04:12:21;;;;;;;15.95;6.30;;;23.00;99.90;;;;;;5073983;28;20397;-66
2021/06/19 04:14:50;;;;;;;14.25;6.35;;;23.10;99.90;;;;;;5074452;28;20029;-62
2021/06/19 04:17:17;;;;;;;13.85;6.75;;;23.20;99.90;;;;;;5074082;28;20032;-62
2021/06/19 04:19:43;;;;;;;19.00;7.65;;;23.20;99.90;;;;;;5073857;28;20025;-62
2021/06/19 04:22:11;;;;;;;16.25;5.80;;;23.00;99.90;;;;;;5073523;28;20509;-62
2021/06/19 04:24:38;;;;;;;15.65;7.40;;;23.00;99.90;;;;;;5074020;28;20032;-68
2021/06/19 04:27:11;;;;;;;12.88;6.50;;;22.80;99.90;;;;;;5072050;28;20035;-57
2021/06/19 04:29:39;;;;;;;13.35;6.25;;;22.70;99.90;;;;;;5072933;28;20478;-58
2021/06/19 04:32:05;;;;;;;15.07;6.80;;;22.80;99.90;;;;;;5072058;28;20041;-59
2021/06/19 04:34:31;;;;;;;10.45;6.53;;;22.90;99.90;;;;;;5071540;28;20032;-63
2021/06/19 04:36:57;;;;;;;14.55;6.15;;;22.90;99.90;;;;;;5087798;28;20047;-62
2021/06/19 04:39:23;;;;;;;15.05;6.30;;;23.00;99.90;;;;;;5072851;28;20021;-62
2021/06/19 04:42:01;;;;;;;11.63;5.95;;;23.00;99.90;;;;;;5072687;28;20032;-62
2021/06/19 04:45:09;;;;;;;17.30;6.78;;;22.90;99.90;;;;;;5073278;28;20389;-62
2021/06/19 04:47:16;;;;;;;17.48;6.78;;;22.90;99.90;;;;;;5067482;28;20087;-60
2021/06/19 04:49:42;;;;;;;13.95;7.18;;;23.00;99.90;;;;;;5073471;28;20068;-60
2021/06/19 04:52:08;;;;;;;14.25;6.65;;;23.00;99.90;;;;;;5073335;28;20028;-59
2021/06/19 04:54:38;;;;;;;25.85;12.60;;;23.10;99.90;;;;;;5073162;28;20508;-59
2021/06/19 04:57:08;;;;;;;23.60;11.60;;;23.20;99.90;;;;;;5072825;28;20393;-58
2021/06/19 04:59:35;;;;;;;17.10;6.20;;;23.20;99.90;;;;;;5073214;28;20112;-58
2021/06/19 05:02:02;;;;;;;15.75;6.03;;;23.20;99.90;;;;;;5072987;28;20230;-58
2021/06/19 05:04:28;;;;;;;17.50;6.57;;;23.20;99.90;;;;;;5072946;28;20107;-59
2021/06/19 05:06:54;;;;;;;11.65;6.10;;;23.20;99.90;;;;;;5071522;28;20486;-58
2021/06/19 05:09:21;;;;;;;16.55;6.60;;;23.30;99.90;;;;;;5071766;28;20040;-58
2021/06/19 05:11:46;;;;;;;17.90;6.00;;;23.30;99.90;;;;;;5072886;28;20089;-58
2021/06/19 05:14:12;;;;;;;12.20;6.32;;;23.20;99.90;;;;;;5072801;28;20032;-58
2021/06/19 05:16:38;;;;;;;11.20;5.57;;;23.30;99.90;;;;;;5072949;28;20028;-58
2021/06/19 05:19:04;;;;;;;14.35;7.30;;;23.30;99.90;;;;;;5072799;28;20541;-69
2021/06/19 05:21:30;;;;;;;13.32;6.32;;;23.30;99.90;;;;;;5071619;28;20032;-70
2021/06/19 05:23:55;;;;;;;17.95;7.22;;;23.40;99.90;;;;;;5072013;28;20024;-70
2021/06/19 05:26:21;;;;;;;17.45;7.35;;;23.50;99.90;;;;;;5071772;28;20075;-70
2021/06/19 05:28:47;;;;;;;16.17;7.28;;;23.50;99.90;;;;;;5054786;28;20054;-70
2021/06/19 05:31:13;;;;;;;14.43;7.50;;;23.60;99.90;;;;;;5072102;28;20396;-70
2021/06/19 05:33:39;;;;;;;13.43;7.05;;;23.60;99.90;;;;;;5072617;28;20048;-70
2021/06/19 05:36:05;;;;;;;16.73;7.90;;;23.70;99.90;;;;;;5072463;28;20024;-70
2021/06/19 05:38:31;;;;;;;17.98;6.88;;;23.70;99.90;;;;;;5072248;28;20047;-71
2021/06/19 05:40:57;;;;;;;15.18;6.60;;;23.80;99.90;;;;;;5072685;28;20033;-71
2021/06/19 05:43:23;;;;;;;15.32;6.65;;;23.80;99.90;;;;;;5072084;28;20040;-71
2021/06/19 05:45:51;;;;;;;15.80;7.47;;;23.90;99.90;;;;;;5072543;28;20067;-71
2021/06/19 05:48:18;;;;;;;17.33;6.78;;;23.90;99.90;;;;;;5054178;28;20029;-71
2021/06/19 05:50:44;;;;;;;16.17;7.60;;;23.90;99.90;;;;;;5087994;28;20040;-70
2021/06/19 05:53:09;;;;;;;13.02;7.05;;;24.00;99.90;;;;;;5072284;28;20032;-59
2021/06/19 05:55:35;;;;;;;12.70;6.30;;;24.10;99.90;;;;;;5072415;28;20040;-59
2021/06/19 05:58:01;;;;;;;16.33;6.93;;;24.10;99.90;;;;;;5072114;28;20029;-60
2021/06/19 06:00:27;;;;;;;21.95;6.63;;;24.20;99.90;;;;;;5072337;28;20071;-59
2021/06/19 06:02:53;;;;;;;19.13;6.65;;;24.20;99.90;;;;;;5072137;28;20493;-58
2021/06/19 06:05:19;;;;;;;16.40;6.50;;;24.30;99.90;;;;;;5070957;28;20594;-59
2021/06/19 06:07:45;;;;;;;12.07;6.32;;;24.40;99.90;;;;;;5072324;28;20067;-59
2021/06/19 06:10:12;;;;;;;14.32;5.82;;;24.50;99.90;;;;;;5072133;28;20033;-60
2021/06/19 06:12:38;;;;;;;8.32;5.57;;;24.50;99.90;;;;;;5087521;28;20473;-59
2021/06/19 06:15:06;;;;;;;11.48;5.30;;;24.60;99.90;;;;;;5071963;28;20032;-57
2021/06/19 06:17:32;;;;;;;12.95;6.28;;;24.70;99.90;;;;;;5070657;28;20032;-58
2021/06/19 06:19:58;;;;;;;12.45;6.40;;;24.60;99.90;;;;;;5070973;28;20031;-60
2021/06/19 06:22:23;;;;;;;12.82;5.65;;;24.70;99.90;;;;;;5071931;28;20123;-60
2021/06/19 06:24:49;;;;;;;11.05;5.70;;;24.90;99.90;;;;;;5070597;28;20120;-61
2021/06/19 06:27:15;;;;;;;11.70;5.78;;;24.90;99.90;;;;;;5071237;28;20067;-59
2021/06/19 06:29:41;;;;;;;8.43;5.07;;;24.90;99.90;;;;;;5071909;28;20492;-61
2021/06/19 06:32:07;;;;;;;12.20;6.45;;;24.90;99.90;;;;;;5071502;28;20424;-59
2021/06/19 06:34:33;;;;;;;16.27;5.85;;;25.10;99.90;;;;;;5071968;28;20099;-60
2021/06/19 06:36:58;;;;;;;12.25;5.68;;;25.10;99.90;;;;;;5070411;28;20064;-59
2021/06/19 06:39:24;;;;;;;9.32;5.50;;;25.20;99.90;;;;;;5071805;28;20115;-60
2021/06/19 06:41:50;;;;;;;15.65;5.53;;;25.10;99.90;;;;;;5071864;28;20071;-60
2021/06/19 06:44:16;;;;;;;11.98;5.78;;;25.20;99.90;;;;;;5071909;28;20059;-60
2021/06/19 06:46:41;;;;;;;12.43;5.88;;;25.40;99.90;;;;;;5071962;28;20039;-59
2021/06/19 06:49:07;;;;;;;14.90;4.93;;;25.60;99.90;;;;;;5072000;28;20031;-58
2021/06/19 06:51:34;;;;;;;10.45;4.95;;;25.70;99.90;;;;;;5071763;28;20021;-58
2021/06/19 06:54:00;;;;;;;11.93;4.97;;;25.50;99.90;;;;;;5071980;28;20111;-63
2021/06/19 06:56:26;;;;;;;11.77;4.72;;;25.60;99.90;;;;;;5067513;28;20493;-58
2021/06/19 06:58:52;;;;;;;15.48;5.10;;;25.60;99.90;;;;;;5052543;28;20060;-58
2021/06/19 07:01:18;;;;;;;14.02;6.97;;;25.80;99.90;;;;;;5055348;28;20033;-58
2021/06/19 07:03:44;;;;;;;13.50;5.93;;;25.80;99.90;;;;;;5054107;28;20086;-58
2021/06/19 07:06:09;;;;;;;13.48;6.13;;;25.80;99.90;;;;;;5053714;28;20045;-56
2021/06/19 07:08:35;;;;;;;16.98;5.47;;;26.00;99.90;;;;;;5055508;28;20039;-58
2021/06/19 07:11:01;;;;;;;13.50;5.03;;;26.10;99.90;;;;;;5053907;28;20060;-58
2021/06/19 07:13:27;;;;;;;8.73;4.70;;;25.90;99.90;;;;;;5055009;28;20493;-58
2021/06/19 07:15:53;;;;;;;8.77;4.45;;;26.00;99.90;;;;;;5053893;28;20021;-58
2021/06/19 07:18:19;;;;;;;11.38;4.35;;;26.00;99.90;;;;;;5055189;28;20533;-56
2021/06/19 07:20:44;;;;;;;10.73;4.97;;;26.00;99.90;;;;;;5055093;28;20347;-57
2021/06/19 07:23:10;;;;;;;9.65;4.55;;;26.00;99.90;;;;;;5054930;28;20029;-58
2021/06/19 07:25:36;;;;;;;11.98;4.50;;;26.10;99.90;;;;;;5054738;28;20108;-58
2021/06/19 07:28:02;;;;;;;8.23;4.53;;;26.10;99.90;;;;;;5072210;28;20036;-58
2021/06/19 07:30:28;;;;;;;10.98;5.47;;;26.30;99.90;;;;;;5074610;28;20132;-59
2021/06/19 07:32:55;;;;;;;8.25;4.40;;;26.40;99.90;;;;;;5074824;28;20068;-61
2021/06/19 07:35:22;;;;;;;17.25;5.22;;;26.50;99.90;;;;;;5073043;28;20032;-61
2021/06/19 07:37:48;;;;;;;10.75;5.18;;;26.50;99.90;;;;;;5074569;28;20029;-61
2021/06/19 07:40:15;;;;;;;10.05;4.93;;;26.60;99.90;;;;;;5074597;28;20070;-61
2021/06/19 07:42:42;;;;;;;7.47;4.43;;;26.70;99.90;;;;;;5074745;28;20020;-61
2021/06/19 07:45:09;;;;;;;8.18;4.75;;;26.70;99.90;;;;;;5073438;28;20457;-62
2021/06/19 07:47:36;;;;;;;13.52;4.65;;;26.70;99.90;;;;;;5074306;28;20087;-59
2021/06/19 07:50:04;;;;;;;11.70;5.10;;;26.80;99.90;;;;;;5074731;28;20028;-61
2021/06/19 07:52:29;;;;;;;17.65;9.80;;;27.00;99.90;;;;;;5074478;28;20037;-60
2021/06/19 07:54:55;;;;;;;13.20;5.93;;;27.10;99.90;;;;;;5074577;28;20035;-60
2021/06/19 07:57:21;;;;;;;11.63;5.75;;;27.20;99.90;;;;;;5073962;28;20064;-60
2021/06/19 07:59:46;;;;;;;14.95;5.28;;;27.20;99.90;;;;;;5074375;28;20028;-59
2021/06/19 08:02:13;;;;;;;9.48;4.90;;;27.20;99.90;;;;;;5089632;28;20028;-61
2021/06/19 08:04:39;;;;;;;10.18;4.35;;;27.30;99.90;;;;;;5074321;28;20028;-59
2021/06/19 08:07:05;;;;;;;12.73;4.70;;;27.40;99.90;;;;;;5074002;28;20042;-60
2021/06/19 08:09:31;;;;;;;12.70;5.25;;;27.50;99.90;;;;;;5074170;28;20032;-60
2021/06/19 08:11:58;;;;;;;13.68;5.13;;;27.60;99.90;;;;;;5073194;28;20025;-58
2021/06/19 08:14:24;;;;;;;11.52;4.93;;;27.60;99.90;;;;;;5074052;28;20497;-66
2021/06/19 08:16:52;;;;;;;10.43;5.22;;;27.50;99.90;;;;;;5073729;28;20043;-59
2021/06/19 08:19:19;;;;;;;9.73;5.25;;;27.40;99.90;;;;;;5073984;28;20039;-58
2021/06/19 08:21:46;;;;;;;10.20;4.90;;;27.20;99.90;;;;;;5074049;28;20039;-58
2021/06/19 08:24:11;;;;;;;12.15;5.85;;;27.30;99.90;;;;;;5073809;28;20033;-58
2021/06/19 08:26:38;;;;;;;12.07;6.43;;;27.50;99.90;;;;;;5074046;28;20097;-59
2021/06/19 08:29:05;;;;;;;11.60;5.72;;;27.50;99.90;;;;;;5072611;28;20036;-60
2021/06/19 08:31:40;;;;;;;14.25;6.45;;;27.60;99.90;;;;;;5072043;28;20063;-60
2021/06/19 08:34:07;;;;;;;12.20;4.90;;;27.80;99.90;;;;;;5073324;28;20040;-60
2021/06/19 08:36:33;;;;;;;14.80;4.82;;;27.80;99.60;;;;;;5073579;28;20028;-60
2021/06/19 08:39:00;;;;;;;11.20;5.45;;;28.00;98.80;;;;;;5065919;28;20182;-59
2021/06/19 08:41:27;;;;;;;11.82;4.63;;;28.10;98.60;;;;;;5073294;28;20036;-60
2021/06/19 08:43:53;;;;;;;12.32;4.80;;;27.90;98.40;;;;;;5073392;28;20036;-59
2021/06/19 08:46:22;;;;;;;11.80;5.13;;;27.90;98.60;;;;;;5073100;28;20376;-59
2021/06/19 08:48:52;;;;;;;13.23;4.78;;;28.00;98.40;;;;;;5073468;28;20033;-60
2021/06/19 08:51:20;;;;;;;15.48;5.72;;;28.00;98.40;;;;;;5073335;28;20031;-59
2021/06/19 08:53:48;;;;;;;14.43;6.10;;;27.90;98.70;;;;;;5072933;28;20457;-60
2021/06/19 08:56:14;;;;;;;9.25;5.80;;;28.00;98.70;;;;;;5073184;28;20123;-61
2021/06/19 08:58:41;;;;;;;10.20;4.60;;;27.80;98.30;;;;;;5072941;28;20032;-61
2021/06/19 09:01:06;;;;;;;11.40;4.05;;;27.90;98.70;;;;;;5073270;28;20112;-60
2021/06/19 09:03:32;;;;;;;8.57;4.88;;;28.10;98.20;;;;;;5072724;28;20116;-61
2021/06/19 09:06:18;;;;;;;9.13;4.80;;;28.30;98.10;;;;;;5073121;28;20136;-59
2021/06/19 09:09:15;;;;;;;12.48;4.43;;;28.30;97.60;;;;;;5073015;28;20032;-59
2021/06/19 09:11:53;;;;;;;18.30;9.88;;;28.60;97.40;;;;;;5073147;28;20036;-60
2021/06/19 09:14:25;;;;;;;17.70;7.07;;;28.60;97.20;;;;;;5072887;28;20040;-60
2021/06/19 09:17:07;;;;;;;13.60;4.68;;;28.70;96.70;;;;;;5087813;28;20029;-61
2021/06/19 09:19:40;;;;;;;12.77;5.10;;;28.80;96.70;;;;;;5071447;28;20028;-60
2021/06/19 09:22:19;;;;;;;12.00;4.60;;;28.80;96.60;;;;;;5071404;28;20028;-59
2021/06/19 09:24:49;;;;;;;10.20;4.65;;;28.90;96.70;;;;;;5055103;28;20064;-60
2021/06/19 09:27:42;;;;;;;8.57;5.00;;;29.00;96.50;;;;;;5072575;28;20041;-60
2021/06/19 09:30:22;;;;;;;9.38;4.30;;;29.00;96.40;;;;;;5072459;28;20557;-62
2021/06/19 09:32:47;;;;;;;11.13;4.70;;;29.20;96.40;;;;;;5072557;28;20097;-60
2021/06/19 09:35:35;;;;;;;9.23;4.40;;;29.10;95.70;;;;;;5072645;28;20036;-60
2021/06/19 09:38:12;;;;;;;11.48;3.90;;;29.10;95.90;;;;;;5072732;28;20024;-61
2021/06/19 09:40:49;;;;;;;8.82;4.47;;;29.20;95.50;;;;;;5072576;28;20033;-60
2021/06/19 09:43:27;;;;;;;8.95;4.50;;;29.30;95.10;;;;;;5070929;28;20530;-60
2021/06/19 09:46:09;;;;;;;7.55;3.88;;;29.20;95.00;;;;;;5072622;28;20489;-59
2021/06/19 09:48:46;;;;;;;7.78;3.83;;;29.30;94.70;;;;;;5072463;28;20043;-61
2021/06/19 09:51:23;;;;;;;6.75;3.40;;;29.30;94.80;;;;;;5072221;28;20112;-60
2021/06/19 09:54:07;;;;;;;10.32;4.00;;;29.30;94.50;;;;;;5072501;28;20103;-59
2021/06/19 09:57:01;;;;;;;7.57;4.20;;;29.60;94.10;;;;;;5072265;28;20036;-59
2021/06/19 09:59:34;;;;;;;13.15;4.55;;;29.70;94.60;;;;;;5071127;28;20025;-60
2021/06/19 10:02:04;;;;;;;9.90;3.72;;;30.00;94.40;;;;;;5072363;28;20111;-60
2021/06/19 10:04:31;;;;;;;8.63;3.80;;;30.10;94.00;;;;;;5066126;28;20032;-59
2021/06/19 10:06:59;;;;;;;9.10;4.20;;;30.20;93.40;;;;;;5068553;28;20040;-61
2021/06/19 10:09:25;;;;;;;8.35;3.85;;;30.30;93.10;;;;;;5055317;28;20028;-61
2021/06/19 10:11:54;;;;;;;8.73;4.22;;;30.40;92.70;;;;;;5051787;28;20032;-62
2021/06/19 10:14:24;;;;;;;9.43;3.70;;;30.00;93.10;;;;;;5051584;28;20072;-62
2021/06/19 10:16:53;;;;;;;9.70;3.72;;;30.30;92.80;;;;;;5067592;28;20041;-62
2021/06/19 10:19:22;;;;;;;8.00;3.70;;;30.20;92.50;;;;;;5051993;28;20044;-62
2021/06/19 10:21:51;;;;;;;8.23;3.90;;;30.40;92.50;;;;;;5052219;28;20488;-60
2021/06/19 10:24:18;;;;;;;12.02;3.60;;;30.50;92.80;;;;;;5052120;28;20056;-59
2021/06/19 10:26:45;;;;;;;11.27;3.90;;;30.90;91.90;;;;;;5057935;28;20063;-70
2021/06/19 10:29:12;;;;;;;8.77;3.47;;;30.90;92.60;;;;;;5070400;28;20370;-67
2021/06/19 10:31:51;;;;;;;12.60;4.18;;;30.90;91.80;;;;;;5070376;28;20036;-67
2021/06/19 10:34:31;;;;;;;9.23;4.07;;;31.00;91.80;;;;;;5072053;28;20485;-67
2021/06/19 10:37:03;;;;;;;8.98;3.80;;;31.10;91.70;;;;;;5076165;28;20043;-67
2021/06/19 10:39:44;;;;;;;6.47;3.67;;;31.30;91.30;;;;;;5074202;28;20064;-67
2021/06/19 10:42:33;;;;;;;10.55;4.00;;;31.20;91.50;;;;;;5075646;28;20055;-65
2021/06/19 10:45:16;;;;;;;10.65;4.13;;;31.30;91.70;;;;;;5075886;28;20036;-65
2021/06/19 10:48:12;;;;;;;8.35;4.10;;;31.60;91.10;;;;;;5074319;28;20048;-66
2021/06/19 10:50:41;;;;;;;10.40;4.35;;;31.60;90.80;;;;;;5074256;28;20025;-66
2021/06/19 10:53:16;;;;;;;8.40;4.03;;;31.60;90.90;;;;;;5075655;28;20094;-66
2021/06/19 10:55:42;;;;;;;9.98;3.90;;;31.90;91.30;;;;;;5075113;28;20385;-65
2021/06/19 10:58:24;;;;;;;7.50;3.70;;;31.90;90.80;;;;;;5075590;28;20028;-67
2021/06/19 11:00:52;;;;;;;11.57;4.75;;;31.90;90.80;;;;;;5075299;28;20040;-66
2021/06/19 11:03:53;;;;;;;12.77;5.60;;;32.20;89.60;;;;;;5075263;28;20035;-66
2021/06/19 11:06:26;;;;;;;14.60;4.10;;;32.30;89.40;;;;;;5074262;28;20106;-66
2021/06/19 11:09:15;;;;;;;12.25;3.92;;;32.30;90.60;;;;;;5075525;28;20123;-67
2021/06/19 11:12:02;;;;;;;7.68;3.35;;;32.80;87.90;;;;;;5075102;28;20039;-66
2021/06/19 11:14:40;;;;;;;8.05;3.75;;;32.90;86.90;;;;;;5074870;28;20033;-66
2021/06/19 11:17:21;;;;;;;12.27;3.65;;;33.00;85.70;;;;;;5074124;28;20032;-67
2021/06/19 11:19:57;;;;;;;6.38;3.17;;;33.30;84.90;;;;;;5074245;28;20036;-67
2021/06/19 11:22:23;;;;;;;13.38;4.03;;;32.80;85.20;;;;;;5074716;28;20029;-67
2021/06/19 11:25:52;;;;;;;14.80;3.72;;;32.80;84.70;;;;;;5075194;28;20044;-66
2021/06/19 11:28:20;;;;;;;9.90;3.58;;;33.20;85.30;;;;;;5073696;28;20043;-67
2021/06/19 11:31:03;;;;;;;7.75;3.70;;;33.30;83.50;;;;;;5074770;28;20052;-67
2021/06/19 11:33:35;;;;;;;7.00;3.50;;;33.40;82.90;;;;;;5074410;28;20043;-67
2021/06/19 11:36:03;;;;;;;7.93;3.03;;;33.10;83.60;;;;;;5074756;28;20183;-66
2021/06/19 11:38:57;;;;;;;8.68;3.50;;;33.10;83.40;;;;;;5074469;28;20044;-67
2021/06/19 11:41:34;;;;;;;6.93;3.35;;;33.40;81.10;;;;;;5074628;28;20432;-67
2021/06/19 11:44:08;;;;;;;7.45;3.30;;;33.50;82.00;;;;;;5074588;28;20060;-69
2021/06/19 11:46:33;;;;;;;10.02;3.22;;;33.40;79.90;;;;;;5072973;28;20039;-69
2021/06/19 11:49:08;;;;;;;9.65;3.22;;;33.70;79.20;;;;;;5074545;28;20164;-69
2021/06/19 11:51:35;;;;;;;10.45;3.80;;;33.30;80.00;;;;;;5072968;28;20067;-70
2021/06/19 11:54:02;;;;;;;9.75;3.10;;;33.20;80.10;;;;;;5074240;28;20055;-70
2021/06/19 11:56:30;;;;;;;9.25;3.65;;;33.40;79.00;;;;;;5072927;28;20028;-68
2021/06/19 11:58:59;;;;;;;9.00;2.95;;;33.70;78.10;;;;;;5074486;28;20115;-67
2021/06/19 12:01:31;;;;;;;9.38;3.72;;;33.70;77.00;;;;;;5074249;28;20025;-66
2021/06/19 12:04:05;;;;;;;10.13;3.00;;;34.00;75.00;;;;;;5072840;28;20384;-71
2021/06/19 12:06:35;;;;;;;5.13;3.13;;;34.00;74.40;;;;;;5072903;28;20032;-70
2021/06/19 12:09:06;;;;;;;;;;;34.20;73.30;;;;;;5090136;28;20228;-69
2021/06/19 12:11:35;;;;;;;11.73;3.80;;;34.10;74.70;;;;;;5073871;28;19998;-72
2021/06/19 12:14:14;;;;;;;9.93;3.03;;;34.80;75.40;;;;;;5072790;28;20032;-60
2021/06/19 12:16:40;;;;;;;8.50;2.58;;;35.20;73.40;;;;;;5072704;28;20078;-71
2021/06/19 12:19:06;;;;;;;6.28;3.03;;;35.30;70.20;;;;;;5089737;28;20036;-58
2021/06/19 12:21:36;;;;;;;7.35;2.78;;;35.00;70.90;;;;;;5073776;28;20025;-70
2021/06/19 12:24:06;;;;;;;12.18;4.10;;;35.20;70.40;;;;;;5072585;28;20086;-70
2021/06/19 12:26:32;;;;;;;6.75;2.50;;;34.80;69.90;;;;;;5073696;28;20036;-70
2021/06/19 12:29:01;;;;;;;7.97;2.60;;;34.40;70.90;;;;;;5072250;28;20441;-70
2021/06/19 12:31:27;;;;;;;10.70;3.53;;;34.40;70.40;;;;;;5071998;28;20148;-72
2021/06/19 12:34:19;;;;;;;6.18;2.78;;;34.20;72.90;;;;;;5073843;28;20539;-73
2021/06/19 12:36:46;;;;;;;7.80;2.70;;;34.60;71.60;;;;;;5071394;28;20043;-72
2021/06/19 12:39:11;;;;;;;8.48;2.72;;;34.70;71.80;;;;;;5072493;28;20381;-72
2021/06/19 12:41:42;;;;;;;11.10;2.75;;;34.90;71.80;;;;;;5072300;28;20032;-72
2021/06/19 12:44:10;;;;;;;11.48;2.70;;;34.80;71.60;;;;;;5072132;28;20033;-72
2021/06/19 12:46:36;;;;;;;6.75;3.03;;;34.80;70.50;;;;;;5073323;28;20020;-71
2021/06/19 12:49:05;;;;;;;7.70;3.05;;;34.90;70.20;;;;;;5072576;28;20381;-72
2021/06/19 12:51:40;;;;;;;9.55;3.08;;;35.00;70.00;;;;;;5072770;28;20025;-72
2021/06/19 12:54:24;;;;;;;7.00;2.60;;;35.10;71.10;;;;;;5073238;28;20389;-72